createdAt,value
2023-08-08T00:00:13.668Z,19.50
2023-08-08T00:02:59.994Z,19.32
2023-08-08T00:05:26.736Z,19.32
2023-08-08T00:07:52.982Z,19.35
2023-08-08T00:10:19.451Z,19.38
2023-08-08T00:12:45.812Z,19.49
2023-08-08T00:15:12.351Z,19.53
2023-08-08T00:17:38.858Z,19.56
2023-08-08T00:20:05.918Z,19.59
2023-08-08T00:22:32.132Z,19.59
2023-08-08T00:24:59.265Z,19.59
2023-08-08T00:27:25.516Z,19.58
2023-08-08T00:29:53.496Z,19.53
2023-08-08T00:32:19.678Z,19.48
2023-08-08T00:34:46.085Z,19.43
2023-08-08T00:37:12.234Z,19.42
2023-08-08T00:39:39.654Z,19.46
2023-08-08T00:42:06.068Z,19.28
2023-08-08T00:44:32.518Z,19.13
2023-08-08T00:46:58.762Z,19.37
2023-08-08T00:49:25.387Z,19.31
2023-08-08T00:51:51.886Z,19.23
2023-08-08T00:54:18.505Z,19.36
2023-08-08T00:56:44.663Z,19.17
2023-08-08T00:59:13.098Z,19.26
2023-08-08T01:01:39.254Z,19.30
2023-08-08T01:04:07.429Z,19.26
2023-08-08T01:06:36.645Z,19.38
2023-08-08T01:09:21.887Z,19.21
2023-08-08T01:11:50.188Z,19.26
2023-08-08T01:14:19.263Z,19.04
2023-08-08T01:16:46.287Z,19.09
2023-08-08T01:19:22.678Z,19.27
2023-08-08T01:21:50.983Z,19.15
2023-08-08T01:24:22.751Z,19.01
2023-08-08T01:26:49.567Z,18.81
2023-08-08T01:29:16.119Z,18.88
2023-08-08T01:31:42.275Z,19.02
2023-08-08T01:34:08.916Z,18.93
2023-08-08T01:36:52.308Z,18.84
2023-08-08T01:39:25.483Z,18.94
2023-08-08T01:41:54.376Z,19.07
2023-08-08T01:44:23.514Z,19.01
2023-08-08T01:46:50.056Z,18.97
2023-08-08T01:49:16.492Z,19.02
2023-08-08T01:51:42.620Z,18.97
2023-08-08T01:54:09.306Z,18.89
2023-08-08T01:56:35.794Z,18.90
2023-08-08T01:59:02.359Z,18.75
2023-08-08T02:01:28.627Z,18.94
2023-08-08T02:03:55.206Z,18.90
2023-08-08T02:06:22.283Z,18.72
2023-08-08T02:08:49.127Z,18.82
2023-08-08T02:11:15.388Z,18.73
2023-08-08T02:13:42.385Z,18.70
2023-08-08T02:16:08.593Z,18.71
2023-08-08T02:18:36.476Z,18.54
2023-08-08T02:21:02.654Z,18.62
2023-08-08T02:23:29.057Z,18.69
2023-08-08T02:25:55.253Z,18.64
2023-08-08T02:28:21.781Z,18.57
2023-08-08T02:30:47.910Z,18.58
2023-08-08T02:33:14.390Z,18.67
2023-08-08T02:35:40.811Z,18.58
2023-08-08T02:38:07.247Z,18.42
2023-08-08T02:40:34.008Z,18.33
2023-08-08T02:43:01.492Z,18.27
2023-08-08T02:45:27.668Z,18.36
2023-08-08T02:47:55.041Z,18.27
2023-08-08T02:50:21.365Z,18.24
2023-08-08T02:52:47.992Z,18.36
2023-08-08T02:55:14.259Z,18.24
2023-08-08T02:57:42.334Z,18.32
2023-08-08T03:00:08.883Z,18.34
2023-08-08T03:02:39.905Z,18.33
2023-08-08T03:05:06.930Z,18.26
2023-08-08T03:07:33.550Z,18.03
2023-08-08T03:10:00.167Z,18.36
2023-08-08T03:12:26.688Z,18.30
2023-08-08T03:14:54.115Z,18.20
2023-08-08T03:17:20.702Z,18.28
2023-08-08T03:19:46.996Z,18.32
2023-08-08T03:22:14.662Z,18.24
2023-08-08T03:24:41.616Z,18.26
2023-08-08T03:27:08.057Z,18.58
2023-08-08T03:29:34.582Z,18.73
2023-08-08T03:32:01.030Z,18.68
2023-08-08T03:34:30.859Z,18.54
2023-08-08T03:36:57.645Z,18.56
2023-08-08T03:39:25.032Z,18.52
2023-08-08T03:41:51.872Z,18.63
2023-08-08T03:44:18.644Z,18.67
2023-08-08T03:46:45.307Z,18.68
2023-08-08T03:49:13.852Z,18.88
2023-08-08T03:51:40.508Z,18.80
2023-08-08T03:54:06.945Z,18.69
2023-08-08T03:56:33.815Z,18.70
2023-08-08T03:59:00.371Z,18.70
2023-08-08T04:01:27.207Z,18.59
2023-08-08T04:03:53.616Z,18.81
2023-08-08T04:06:20.043Z,18.67
2023-08-08T04:08:46.376Z,18.87
2023-08-08T04:11:12.873Z,18.87
2023-08-08T04:13:39.050Z,18.94
2023-08-08T04:16:05.608Z,18.99
2023-08-08T04:18:31.742Z,18.46
2023-08-08T04:20:58.216Z,18.82
2023-08-08T04:23:26.150Z,18.57
2023-08-08T04:25:53.279Z,18.86
2023-08-08T04:28:19.642Z,19.03
2023-08-08T04:30:46.505Z,18.98
2023-08-08T04:33:12.720Z,19.12
2023-08-08T04:35:39.226Z,18.94
2023-08-08T04:38:05.393Z,18.97
2023-08-08T04:40:31.921Z,19.10
2023-08-08T04:42:58.371Z,19.16
2023-08-08T04:45:27.619Z,19.36
2023-08-08T04:47:53.832Z,19.29
2023-08-08T04:50:20.720Z,19.25
2023-08-08T04:52:47.109Z,19.58
2023-08-08T04:55:13.678Z,19.62
2023-08-08T04:57:39.998Z,19.56
2023-08-08T05:00:08.975Z,19.90
2023-08-08T05:02:36.510Z,19.88
2023-08-08T05:05:03.911Z,19.81
2023-08-08T05:07:30.476Z,19.91
2023-08-08T05:09:57.080Z,20.04
2023-08-08T05:12:24.025Z,19.87
2023-08-08T05:14:51.729Z,20.02
2023-08-08T05:17:18.419Z,19.88
2023-08-08T05:19:45.117Z,20.07
2023-08-08T05:22:11.398Z,20.16
2023-08-08T05:24:38.540Z,19.92
2023-08-08T05:27:05.519Z,19.90
2023-08-08T05:29:32.488Z,19.49
2023-08-08T05:31:58.889Z,19.58
2023-08-08T05:34:25.736Z,19.64
2023-08-08T05:37:05.803Z,19.55
2023-08-08T05:39:39.059Z,19.73
2023-08-08T05:42:06.272Z,20.02
2023-08-08T05:44:33.330Z,20.19
2023-08-08T05:46:59.466Z,20.25
2023-08-08T05:49:26.014Z,20.40
2023-08-08T05:51:52.205Z,20.75
2023-08-08T05:54:18.791Z,21.07
2023-08-08T05:56:45.292Z,21.26
2023-08-08T05:59:11.948Z,22.79
2023-08-08T06:01:38.237Z,23.64
2023-08-08T06:04:05.027Z,23.10
2023-08-08T06:06:31.366Z,23.89
2023-08-08T06:08:57.916Z,24.91
2023-08-08T06:11:24.575Z,27.55
2023-08-08T06:13:51.185Z,28.19
2023-08-08T06:16:18.988Z,28.71
2023-08-08T06:18:45.521Z,27.58
2023-08-08T06:21:12.037Z,25.22
2023-08-08T06:23:38.664Z,25.26
2023-08-08T06:26:05.903Z,26.21
2023-08-08T06:28:32.647Z,25.17
2023-08-08T06:30:59.069Z,24.62
2023-08-08T06:33:25.530Z,26.41
2023-08-08T06:35:51.668Z,27.31
2023-08-08T06:38:18.273Z,26.87
2023-08-08T06:40:44.447Z,28.30
2023-08-08T06:43:10.844Z,27.92
2023-08-08T06:45:37.153Z,27.61
2023-08-08T06:48:04.187Z,27.91
2023-08-08T06:50:30.544Z,28.01
2023-08-08T06:52:57.256Z,27.66
2023-08-08T06:55:24.827Z,29.57
2023-08-08T06:57:51.488Z,30.31
2023-08-08T07:00:17.964Z,31.21
2023-08-08T07:02:44.568Z,31.43
2023-08-08T07:05:11.154Z,30.80
2023-08-08T07:07:38.471Z,32.44
2023-08-08T07:10:06.858Z,32.88
2023-08-08T07:12:33.455Z,33.05
2023-08-08T07:14:59.587Z,33.18
2023-08-08T07:17:26.201Z,32.89
2023-08-08T07:19:52.543Z,33.10
2023-08-08T07:22:18.991Z,33.45
2023-08-08T07:24:45.294Z,31.17
2023-08-08T07:27:11.742Z,30.17
2023-08-08T07:29:37.952Z,28.86
2023-08-08T07:32:05.197Z,27.77
2023-08-08T07:34:32.579Z,27.40
2023-08-08T07:36:59.712Z,26.95
2023-08-08T07:39:26.419Z,25.80
2023-08-08T07:41:53.642Z,25.14
2023-08-08T07:44:19.919Z,25.02
2023-08-08T07:46:46.518Z,24.87
2023-08-08T07:49:13.730Z,24.54
2023-08-08T07:51:40.135Z,24.37
2023-08-08T07:54:08.892Z,23.84
2023-08-08T07:56:36.092Z,23.97
2023-08-08T07:59:02.592Z,24.12
2023-08-08T08:01:29.567Z,24.09
2023-08-08T08:03:56.176Z,23.51
2023-08-08T08:06:22.720Z,23.36
2023-08-08T08:08:48.921Z,23.55
2023-08-08T08:11:17.045Z,23.38
2023-08-08T08:13:43.506Z,23.16
2023-08-08T08:16:10.077Z,23.45
2023-08-08T08:18:36.581Z,23.20
2023-08-08T08:21:03.157Z,23.52
2023-08-08T08:23:29.378Z,23.69
2023-08-08T08:25:56.117Z,23.22
2023-08-08T08:28:22.734Z,23.40
2023-08-08T08:30:50.160Z,23.52
2023-08-08T08:33:16.449Z,23.59
2023-08-08T08:35:43.165Z,23.48
2023-08-08T08:38:10.474Z,23.64
2023-08-08T08:40:40.875Z,23.53
2023-08-08T08:43:08.453Z,23.95
2023-08-08T08:45:39.679Z,24.62
2023-08-08T08:48:10.301Z,24.63
2023-08-08T08:50:39.948Z,24.67
2023-08-08T08:53:06.561Z,24.77
2023-08-08T08:55:33.210Z,24.52
2023-08-08T08:57:59.981Z,24.54
2023-08-08T09:00:46.294Z,24.59
2023-08-08T09:03:14.302Z,24.76
2023-08-08T09:05:42.523Z,24.54
2023-08-08T09:08:09.722Z,24.30
2023-08-08T09:10:36.232Z,24.27
2023-08-08T09:13:02.549Z,24.77
2023-08-08T09:15:33.174Z,25.45
2023-08-08T09:17:59.381Z,25.72
2023-08-08T09:20:29.985Z,25.80
2023-08-08T09:22:57.437Z,25.41
2023-08-08T09:25:24.768Z,25.68
2023-08-08T09:27:53.727Z,25.69
2023-08-08T09:30:20.765Z,25.73
2023-08-08T09:32:47.725Z,25.65
2023-08-08T09:35:15.540Z,25.02
2023-08-08T09:37:42.631Z,25.29
2023-08-08T09:40:11.513Z,25.33
2023-08-08T09:42:38.141Z,25.09
2023-08-08T09:45:05.149Z,25.06
2023-08-08T09:47:32.195Z,25.29
2023-08-08T09:50:05.258Z,25.03
2023-08-08T09:52:33.729Z,25.05
2023-08-08T09:55:00.804Z,25.91
2023-08-08T09:57:27.469Z,26.16
2023-08-08T09:59:53.950Z,26.25
2023-08-08T10:02:20.664Z,26.42
2023-08-08T10:04:47.172Z,26.84
2023-08-08T10:07:14.278Z,27.23
2023-08-08T10:09:41.028Z,27.74
2023-08-08T10:12:09.191Z,27.51
2023-08-08T10:14:38.147Z,27.63
2023-08-08T10:17:06.622Z,26.94
2023-08-08T10:19:34.075Z,26.50
2023-08-08T10:22:04.727Z,25.93
2023-08-08T10:24:37.257Z,26.03
2023-08-08T10:27:04.767Z,25.84
2023-08-08T10:29:34.078Z,25.82
2023-08-08T10:32:06.406Z,25.73
2023-08-08T10:34:39.597Z,26.38
2023-08-08T10:37:11.809Z,26.27
2023-08-08T10:39:38.654Z,25.51
2023-08-08T10:42:05.569Z,25.27
2023-08-08T10:44:32.521Z,25.18
2023-08-08T10:47:00.864Z,25.32
2023-08-08T10:49:27.055Z,25.38
2023-08-08T10:51:53.781Z,25.79
2023-08-08T10:54:23.639Z,26.27
2023-08-08T10:56:51.988Z,26.34
2023-08-08T10:59:24.654Z,26.39
2023-08-08T11:01:52.828Z,26.08
2023-08-08T11:04:20.840Z,25.72
2023-08-08T11:06:47.865Z,25.64
2023-08-08T11:09:15.224Z,25.62
2023-08-08T11:11:43.499Z,25.48
2023-08-08T11:14:21.253Z,25.10
2023-08-08T11:16:50.240Z,25.00
2023-08-08T11:19:19.177Z,24.36
2023-08-08T11:21:49.033Z,24.49
2023-08-08T11:24:15.902Z,24.59
2023-08-08T11:26:45.567Z,24.38
2023-08-08T11:29:11.959Z,24.54
2023-08-08T11:31:38.604Z,24.75
2023-08-08T11:34:05.748Z,25.24
2023-08-08T11:36:35.989Z,25.47
2023-08-08T11:39:08.575Z,25.74
2023-08-08T11:41:36.312Z,25.99
2023-08-08T11:44:04.304Z,26.36
2023-08-08T11:46:30.848Z,26.20
2023-08-08T11:49:07.455Z,26.51
2023-08-08T11:51:35.230Z,26.29
2023-08-08T11:54:04.519Z,25.87
2023-08-08T11:56:34.721Z,25.41
2023-08-08T11:59:02.237Z,24.77
2023-08-08T12:01:30.968Z,24.07
2023-08-08T12:03:57.529Z,23.59
2023-08-08T12:06:29.336Z,23.37
2023-08-08T12:08:56.219Z,23.23
2023-08-08T12:11:25.467Z,23.27
2023-08-08T12:13:59.532Z,23.25
2023-08-08T12:16:30.650Z,23.28
2023-08-08T12:18:57.143Z,23.19
2023-08-08T12:21:23.613Z,23.19
2023-08-08T12:23:50.025Z,23.32
2023-08-08T12:26:16.609Z,23.48
2023-08-08T12:28:42.911Z,23.26
2023-08-08T12:31:09.630Z,23.29
2023-08-08T12:33:35.931Z,23.71
2023-08-08T12:36:02.599Z,24.02
2023-08-08T12:38:29.083Z,24.00
2023-08-08T12:40:56.491Z,24.27
2023-08-08T12:43:22.729Z,24.35
2023-08-08T12:45:49.617Z,24.45
2023-08-08T12:48:15.894Z,24.07
2023-08-08T12:50:42.939Z,23.36
2023-08-08T12:53:09.654Z,23.02
2023-08-08T12:55:37.966Z,22.71
2023-08-08T12:58:04.451Z,22.40
2023-08-08T13:00:31.228Z,22.63
2023-08-08T13:02:58.362Z,22.68
2023-08-08T13:05:26.124Z,22.98
2023-08-08T13:07:52.384Z,23.14
2023-08-08T13:10:20.604Z,23.43
2023-08-08T13:12:48.134Z,23.78
2023-08-08T13:15:15.551Z,23.93
2023-08-08T13:17:42.393Z,23.88
2023-08-08T13:20:09.899Z,23.78
2023-08-08T13:22:36.295Z,23.77
2023-08-08T13:25:03.439Z,24.06
2023-08-08T13:27:29.793Z,24.01
2023-08-08T13:29:56.326Z,23.93
2023-08-08T13:32:22.599Z,23.97
2023-08-08T13:34:49.465Z,23.71
2023-08-08T13:37:16.694Z,23.68
2023-08-08T13:39:43.451Z,23.86
2023-08-08T13:42:09.823Z,23.89
2023-08-08T13:44:36.485Z,24.17
2023-08-08T13:47:03.182Z,24.70
2023-08-08T13:49:29.835Z,24.81
2023-08-08T13:51:56.303Z,24.78
2023-08-08T13:54:23.171Z,24.76
2023-08-08T13:56:49.686Z,24.61
2023-08-08T13:59:17.037Z,24.37
2023-08-08T14:01:43.645Z,24.25
2023-08-08T14:04:10.547Z,24.31
2023-08-08T14:06:37.012Z,24.24
2023-08-08T14:09:04.668Z,24.26
2023-08-08T14:11:31.015Z,23.88
2023-08-08T14:13:57.604Z,23.57
2023-08-08T14:16:23.866Z,23.44
2023-08-08T14:18:50.635Z,23.09
2023-08-08T14:21:17.303Z,22.34
2023-08-08T14:23:45.059Z,22.11
2023-08-08T14:26:11.997Z,22.01
2023-08-08T14:28:38.703Z,21.93
2023-08-08T14:31:06.643Z,21.81
2023-08-08T14:33:34.122Z,21.61
2023-08-08T14:36:00.644Z,21.48
2023-08-08T14:38:28.045Z,21.75
2023-08-08T14:40:55.242Z,22.23
2023-08-08T14:43:23.861Z,22.63
2023-08-08T14:45:51.954Z,23.38
2023-08-08T14:48:18.879Z,23.86
2023-08-08T14:50:45.368Z,24.22
2023-08-08T14:53:12.227Z,24.56
2023-08-08T14:55:38.611Z,24.51
2023-08-08T14:58:05.195Z,24.52
2023-08-08T15:00:31.852Z,24.11
2023-08-08T15:02:58.559Z,23.93
2023-08-08T15:05:25.313Z,23.96
2023-08-08T15:07:51.924Z,24.05
2023-08-08T15:10:18.388Z,24.19
2023-08-08T15:12:46.415Z,24.35
2023-08-08T15:15:13.077Z,24.51
2023-08-08T15:17:39.660Z,24.54
2023-08-08T15:20:06.741Z,24.50
2023-08-08T15:22:33.510Z,24.48
2023-08-08T15:24:59.868Z,24.53
2023-08-08T15:27:26.550Z,24.48
2023-08-08T15:29:52.868Z,24.59
2023-08-08T15:32:19.638Z,24.44
2023-08-08T15:34:46.124Z,24.05
2023-08-08T15:37:14.066Z,23.71
2023-08-08T15:39:40.897Z,23.37
2023-08-08T15:42:07.649Z,22.82
2023-08-08T15:44:34.270Z,22.10
2023-08-08T15:47:01.383Z,21.62
2023-08-08T15:49:28.148Z,21.60
2023-08-08T15:51:57.174Z,21.18
2023-08-08T15:54:24.480Z,21.53
2023-08-08T15:56:52.020Z,21.72
2023-08-08T15:59:18.621Z,21.79
2023-08-08T16:01:45.647Z,22.08
2023-08-08T16:04:15.281Z,21.96
2023-08-08T16:06:42.057Z,22.15
2023-08-08T16:09:08.943Z,22.41
2023-08-08T16:11:35.742Z,22.65
2023-08-08T16:14:02.789Z,22.39
2023-08-08T16:16:29.538Z,22.52
2023-08-08T16:18:55.936Z,22.22
2023-08-08T16:21:22.596Z,22.28
2023-08-08T16:23:48.893Z,22.50
2023-08-08T16:26:16.366Z,22.64
2023-08-08T16:28:43.220Z,22.69
2023-08-08T16:31:10.792Z,22.59
2023-08-08T16:33:37.187Z,22.08
2023-08-08T16:36:04.420Z,22.06
2023-08-08T16:38:32.074Z,21.83
2023-08-08T16:40:58.776Z,21.64
2023-08-08T16:43:25.705Z,21.21
2023-08-08T16:45:52.585Z,20.97
2023-08-08T16:48:19.242Z,21.24
2023-08-08T16:50:45.855Z,21.41
2023-08-08T16:53:12.332Z,21.45
2023-08-08T16:55:39.160Z,21.47
2023-08-08T16:58:05.686Z,21.58
2023-08-08T17:00:32.769Z,21.59
2023-08-08T17:02:59.591Z,21.78
2023-08-08T17:05:26.538Z,21.69
2023-08-08T17:07:53.075Z,21.62
2023-08-08T17:10:19.701Z,21.59
2023-08-08T17:15:12.814Z,21.30
2023-08-08T17:17:39.389Z,21.24
2023-08-08T17:20:06.674Z,21.28
2023-08-08T17:22:33.496Z,21.15
2023-08-08T17:25:00.710Z,21.09
2023-08-08T17:27:27.509Z,21.05
2023-08-08T17:29:54.215Z,21.04
2023-08-08T17:32:20.990Z,21.00
2023-08-08T17:34:47.796Z,21.03
2023-08-08T17:37:14.428Z,20.98
2023-08-08T17:39:41.086Z,21.05
2023-08-08T17:42:07.627Z,21.00
2023-08-08T17:44:34.428Z,20.97
2023-08-08T17:47:00.850Z,20.98
2023-08-08T17:49:28.078Z,21.03
2023-08-08T17:51:54.510Z,21.08
2023-08-08T17:54:21.341Z,21.02
2023-08-08T17:56:48.334Z,20.96
2023-08-08T17:59:15.145Z,20.98
2023-08-08T18:01:43.729Z,21.15
2023-08-08T18:04:12.488Z,21.02
2023-08-08T18:06:38.915Z,20.94
2023-08-08T18:09:06.005Z,20.91
2023-08-08T18:11:38.795Z,21.02
2023-08-08T18:14:07.499Z,21.12
2023-08-08T18:16:35.298Z,21.10
2023-08-08T18:19:03.604Z,21.11
2023-08-08T18:21:31.627Z,21.03
2023-08-08T18:23:58.661Z,21.09
2023-08-08T18:26:25.080Z,21.10
2023-08-08T18:28:52.029Z,21.19
2023-08-08T18:31:18.871Z,20.97
2023-08-08T18:33:45.966Z,20.99
2023-08-08T18:36:12.829Z,21.00
2023-08-08T18:38:39.640Z,20.89
2023-08-08T18:41:06.006Z,20.78
2023-08-08T18:43:33.012Z,20.66
2023-08-08T18:45:59.427Z,20.58
2023-08-08T18:48:26.303Z,20.47
2023-08-08T18:50:52.958Z,20.34
2023-08-08T18:53:19.632Z,20.41
2023-08-08T18:55:47.611Z,20.28
2023-08-08T18:58:14.355Z,20.25
2023-08-08T19:00:40.928Z,20.11
2023-08-08T19:03:08.608Z,20.10
2023-08-08T19:05:37.495Z,20.00
2023-08-08T19:08:04.389Z,20.02
2023-08-08T19:10:30.780Z,20.11
2023-08-08T19:12:57.444Z,20.02
2023-08-08T19:15:24.701Z,19.98
2023-08-08T19:17:56.237Z,19.98
2023-08-08T19:20:24.333Z,20.04
2023-08-08T19:22:51.076Z,20.05
2023-08-08T19:25:17.866Z,20.14
2023-08-08T19:27:44.780Z,20.05
2023-08-08T19:30:12.005Z,20.05
2023-08-08T19:32:39.274Z,20.02
2023-08-08T19:35:06.082Z,19.93
2023-08-08T19:37:33.005Z,19.80
2023-08-08T19:39:59.509Z,19.78
2023-08-08T19:42:26.399Z,19.90
2023-08-08T19:44:52.874Z,19.93
2023-08-08T19:47:19.728Z,19.84
2023-08-08T19:49:46.884Z,19.93
2023-08-08T19:52:13.918Z,19.77
2023-08-08T19:54:40.379Z,19.96
2023-08-08T19:57:07.292Z,20.05
2023-08-08T19:59:33.940Z,20.19
2023-08-08T20:02:01.341Z,20.16
2023-08-08T20:04:28.519Z,20.13
2023-08-08T20:06:55.371Z,20.06
2023-08-08T20:09:22.516Z,20.08
2023-08-08T20:11:49.443Z,20.22
2023-08-08T20:14:16.082Z,20.30
2023-08-08T20:16:42.754Z,20.39
2023-08-08T20:19:09.344Z,20.44
2023-08-08T20:21:36.228Z,20.22
2023-08-08T20:24:04.024Z,20.06
2023-08-08T20:26:31.490Z,19.87
2023-08-08T20:28:57.995Z,19.88
2023-08-08T20:31:24.834Z,20.04
2023-08-08T20:33:52.792Z,19.98
2023-08-08T20:36:19.889Z,19.79
2023-08-08T20:38:48.739Z,19.79
2023-08-08T20:41:15.674Z,19.90
2023-08-08T20:43:42.592Z,19.84
2023-08-08T20:46:15.157Z,19.64
2023-08-08T20:48:42.199Z,19.79
2023-08-08T20:51:08.840Z,19.75
2023-08-08T20:53:35.591Z,19.70
2023-08-08T20:56:04.026Z,19.80
2023-08-08T20:58:32.147Z,19.69
2023-08-08T21:00:59.283Z,19.71
2023-08-08T21:03:25.883Z,19.83
2023-08-08T21:05:52.817Z,19.79
2023-08-08T21:08:19.246Z,19.73
2023-08-08T21:10:46.057Z,19.73
2023-08-08T21:13:12.718Z,19.82
2023-08-08T21:15:39.523Z,19.80
2023-08-08T21:18:05.998Z,19.79
2023-08-08T21:20:32.678Z,19.87
2023-08-08T21:22:59.243Z,19.79
2023-08-08T21:25:26.275Z,19.80
2023-08-08T21:27:52.622Z,19.86
2023-08-08T21:30:19.259Z,19.85
2023-08-08T21:32:45.697Z,19.99
2023-08-08T21:35:12.525Z,19.89
2023-08-08T21:37:40.484Z,19.82
2023-08-08T21:40:10.702Z,19.80
2023-08-08T21:42:38.886Z,19.95
2023-08-08T21:45:06.576Z,19.79
2023-08-08T21:47:34.239Z,19.68
2023-08-08T21:50:00.852Z,19.66
2023-08-08T21:52:27.734Z,19.67
2023-08-08T21:54:54.390Z,19.59
2023-08-08T21:57:21.231Z,19.60
2023-08-08T21:59:47.417Z,19.64
2023-08-08T22:02:14.321Z,19.67
2023-08-08T22:04:42.635Z,19.46
2023-08-08T22:07:09.719Z,19.46
2023-08-08T22:09:35.977Z,19.42
2023-08-08T22:12:03.969Z,19.32
2023-08-08T22:14:30.257Z,19.30
2023-08-08T22:16:56.810Z,19.30
2023-08-08T22:19:23.052Z,19.28
2023-08-08T22:21:49.727Z,19.33
2023-08-08T22:24:15.949Z,19.27
2023-08-08T22:26:42.416Z,19.24
2023-08-08T22:29:08.630Z,19.30
2023-08-08T22:31:35.280Z,19.25
2023-08-08T22:34:01.594Z,19.23
2023-08-08T22:36:28.231Z,19.28
2023-08-08T22:38:54.514Z,19.28
2023-08-08T22:41:21.264Z,19.38
2023-08-08T22:43:47.504Z,19.36
2023-08-08T22:46:14.067Z,19.49
2023-08-08T22:48:40.457Z,19.37
2023-08-08T22:51:09.872Z,19.41
2023-08-08T22:53:36.194Z,19.40
2023-08-08T22:56:02.719Z,19.32
2023-08-08T22:58:28.983Z,19.39
2023-08-08T23:00:55.726Z,19.52
2023-08-08T23:03:22.058Z,19.45
2023-08-08T23:05:48.839Z,19.39
2023-08-08T23:08:15.165Z,19.27
2023-08-08T23:10:41.701Z,19.25
2023-08-08T23:13:07.963Z,19.36
2023-08-08T23:15:34.572Z,19.37
2023-08-08T23:18:00.867Z,19.35
2023-08-08T23:20:28.165Z,19.36
2023-08-08T23:22:54.451Z,19.38
2023-08-08T23:25:23.177Z,19.40
2023-08-08T23:27:50.013Z,19.49
2023-08-08T23:30:16.621Z,19.39
2023-08-08T23:32:46.796Z,19.31
2023-08-08T23:35:20.342Z,19.37
2023-08-08T23:37:46.576Z,19.46
2023-08-08T23:40:13.589Z,19.36
2023-08-08T23:42:39.855Z,19.37
2023-08-08T23:45:07.122Z,19.48
2023-08-08T23:47:33.472Z,19.49
2023-08-08T23:50:00.058Z,19.42
2023-08-08T23:52:26.401Z,19.38
2023-08-08T23:54:53.001Z,19.37
2023-08-08T23:57:19.274Z,19.39
2023-08-08T23:59:45.774Z,19.29
